Thunder radar more information blitzortung!


Radar de pluja more information rain snow radar


Visita la nostra xarxa de llocs de meteo:

Template documentation
and downloads

And another site



No particular awareness of the weather is required.    There are no Weather-warnings

Pagina Historial Weather Underground text

Diari Resum Octubre 7, 2017 Unitats:  Mètric    Imperial   Tant
« Previous Dia
SegĂźent Dia »
Diari Setmana Mensual Anual Personalitzada
  Maxima: Minima: Media:
Temperatura: 24.6 °C 14.7 °C 18 °C
Punt de rosada: 15.4 °C 8.2 °C 10.5 °C
Humitat: 86 % 44 % 63 %
Wind Speed: 16.7 km/h 0.0 km/h 5.3 km/h
RĂ fegues de vent: 16.7 km/h - -
Vent:- - SSE
Pression baro: 1024.9 hPa 1018.8 hPa -
Precipitacions: 0.0 mm    
Historical Graphs
 
 
Dades de taula per Octubre 7, 2017
Temps Temperatura Punt de rosada Pression baro Vent Wind Speed RĂ fegues de vent Humitat Rainfall Rate (Hourly)
00:03 18.5 °C 15.4 °C 1019.9 hPa WNW 3.7 km/h 3.7 km/h 82 % 0.0 mm
00:08 18.5 °C 15.4 °C 1019.9 hPa SW 1.9 km/h   82 % 0.0 mm
00:13 18.4 °C 15.3 °C 1019.9 hPa WNW 1.9 km/h 1.9 km/h 82 % 0.0 mm
00:18 18.3 °C 15.2 °C 1019.9 hPa Calm     82 % 0.0 mm
00:23 18.2 °C 15.1 °C 1019.9 hPa Calm     82 % 0.0 mm
00:28 18.0 °C 14.9 °C 1019.9 hPa Calm     82 % 0.0 mm
00:33 17.9 °C 14.8 °C 1019.9 hPa SW 3.7 km/h 3.7 km/h 82 % 0.0 mm
00:39 17.7 °C 14.6 °C 1019.9 hPa WSW 3.9 km/h 3.9 km/h 82 % 0.0 mm
00:44 17.5 °C 14.4 °C 1019.9 hPa WSW 3.7 km/h 3.7 km/h 82 % 0.0 mm
00:49 17.6 °C 14.5 °C 1019.9 hPa WSW 3.7 km/h 3.7 km/h 82 % 0.0 mm
00:54 17.7 °C 14.8 °C 1019.9 hPa ENE 3.2 km/h   83 % 0.0 mm
00:59 17.5 °C 14.8 °C 1019.9 hPa ENE 1.9 km/h 2.3 km/h 84 % 0.0 mm
01:04 17.4 °C 14.7 °C 1019.9 hPa SSW 3.5 km/h 3.5 km/h 84 % 0.0 mm
01:09 17.2 °C 14.3 °C 1019.9 hPa South 1.9 km/h 1.9 km/h 83 % 0.0 mm
01:24 17.0 °C 14.1 °C 1019.9 hPa SW 5.6 km/h 5.6 km/h 83 % 0.0 mm
01:29 16.9 °C 14.2 °C 1019.9 hPa WSW 3.7 km/h 3.7 km/h 84 % 0.0 mm
01:34 16.9 °C 14.2 °C 1019.9 hPa SW 3.7 km/h 3.7 km/h 84 % 0.0 mm
01:39 17.0 °C 14.3 °C 1019.9 hPa WSW 3.7 km/h 3.7 km/h 84 % 0.0 mm
01:44 17.0 °C 14.3 °C 1019.9 hPa Calm     84 % 0.0 mm
01:49 17.0 °C 14.3 °C 1019.9 hPa NNE 1.9 km/h 1.9 km/h 84 % 0.0 mm
01:54 17.0 °C 14.4 °C 1019.9 hPa Calm     85 % 0.0 mm
01:59 16.9 °C 14.3 °C 1019.9 hPa Calm     85 % 0.0 mm
02:04 16.9 °C 14.3 °C 1019.9 hPa Calm     85 % 0.0 mm
02:09 16.8 °C 14.3 °C 1019.9 hPa Calm     85 % 0.0 mm
02:14 16.9 °C 14.3 °C 1018.8 hPa ENE 1.9 km/h 1.9 km/h 85 % 0.0 mm
02:19 16.9 °C 14.3 °C 1018.8 hPa Calm     85 % 0.0 mm
02:24 16.8 °C 14.4 °C 1018.8 hPa NE 1.9 km/h 1.9 km/h 86 % 0.0 mm
02:29 16.8 °C 14.4 °C 1019.9 hPa Calm     86 % 0.0 mm
02:34 16.8 °C 14.4 °C 1019.9 hPa Calm     86 % 0.0 mm
02:39 16.7 °C 14.3 °C 1019.9 hPa WSW 1.9 km/h   86 % 0.0 mm
02:44 16.6 °C 14.1 °C 1019.9 hPa WSW 1.9 km/h   85 % 0.0 mm
02:46 16.7 °C 14.2 °C 1019.9 hPa Calm     85 % 0.0 mm
02:51 16.7 °C 14.2 °C 1019.9 hPa Calm     85 % 0.0 mm
02:56 16.5 °C 13.9 °C 1019.9 hPa SW 3.7 km/h 3.7 km/h 85 % 0.0 mm
03:01 16.3 °C 13.6 °C 1019.9 hPa WSW 3.7 km/h 3.9 km/h 84 % 0.0 mm
03:06 16.3 °C 13.6 °C 1019.9 hPa WSW 3.7 km/h 3.7 km/h 84 % 0.0 mm
03:11 16.4 °C 13.7 °C 1019.9 hPa West 1.9 km/h   84 % 0.0 mm
03:16 16.4 °C 13.9 °C 1018.8 hPa Calm     85 % 0.0 mm
03:21 16.3 °C 13.6 °C 1018.8 hPa SW 3.7 km/h 3.7 km/h 84 % 0.0 mm
03:26 16.0 °C 13.3 °C 1018.8 hPa SW 5.6 km/h 5.6 km/h 84 % 0.0 mm
03:31 15.9 °C 13.0 °C 1019.9 hPa SW 7.4 km/h   83 % 0.0 mm
03:36 15.9 °C 13.0 °C 1019.9 hPa WNW 1.9 km/h 2.3 km/h 83 % 0.0 mm
03:41 15.9 °C 12.8 °C 1019.9 hPa West 5.3 km/h 5.3 km/h 82 % 0.0 mm
03:46 16.2 °C 12.7 °C 1019.9 hPa WSW 5.6 km/h 5.6 km/h 80 % 0.0 mm
03:51 16.2 °C 12.6 °C 1019.9 hPa SW 3.7 km/h 3.7 km/h 79 % 0.0 mm
03:56 16.1 °C 12.3 °C 1019.9 hPa SW 1.9 km/h 1.9 km/h 78 % 0.0 mm
04:01 16.1 °C 12.3 °C 1019.9 hPa WSW 3.2 km/h 3.2 km/h 78 % 0.0 mm
04:06 16.2 °C 12.3 °C 1019.9 hPa WSW 3.9 km/h 3.9 km/h 78 % 0.0 mm
04:11 16.1 °C 12.3 °C 1019.9 hPa WSW 3.7 km/h 3.9 km/h 78 % 0.0 mm
04:16 16.0 °C 11.9 °C 1019.9 hPa SW 3.7 km/h 3.7 km/h 77 % 0.0 mm
04:21 16.1 °C 11.9 °C 1019.9 hPa Calm     76 % 0.0 mm
04:26 16.2 °C 11.9 °C 1019.9 hPa WSW 3.7 km/h 3.7 km/h 76 % 0.0 mm
04:31 16.2 °C 11.8 °C 1019.9 hPa SSE 1.9 km/h 1.9 km/h 75 % 0.0 mm
04:36 16.3 °C 11.7 °C 1019.9 hPa NNE 3.9 km/h 3.9 km/h 74 % 0.0 mm
04:41 16.5 °C 11.8 °C 1019.9 hPa ENE 5.6 km/h 5.6 km/h 74 % 0.0 mm
04:46 16.5 °C 11.8 °C 1019.9 hPa NNW 3.7 km/h 3.7 km/h 74 % 0.0 mm
04:51 16.5 °C 11.8 °C 1019.9 hPa NNE 3.7 km/h 3.7 km/h 74 % 0.0 mm
04:56 16.4 °C 11.8 °C 1019.9 hPa West 3.7 km/h 3.7 km/h 74 % 0.0 mm
05:01 16.3 °C 11.4 °C 1020.9 hPa WNW 1.9 km/h   73 % 0.0 mm
05:06 16.2 °C 11.2 °C 1020.9 hPa NNE 3.7 km/h 3.7 km/h 72 % 0.0 mm
05:12 16.1 °C 11.1 °C 1020.9 hPa NE 5.6 km/h 5.6 km/h 72 % 0.0 mm
05:17 16.1 °C 10.8 °C 1020.9 hPa NNW 3.7 km/h 3.7 km/h 71 % 0.0 mm
05:21 16.0 °C 10.7 °C 1020.9 hPa NE 1.9 km/h 1.9 km/h 71 % 0.0 mm
05:26 16.0 °C 10.7 °C 1020.9 hPa NW 2.3 km/h 2.3 km/h 71 % 0.0 mm
05:31 15.8 °C 10.6 °C 1020.9 hPa WNW 5.0 km/h 5.0 km/h 71 % 0.0 mm
05:36 15.7 °C 10.2 °C 1020.9 hPa NNW 1.9 km/h 1.9 km/h 70 % 0.0 mm
05:41 15.6 °C 10.2 °C 1020.9 hPa NW 3.7 km/h 3.7 km/h 70 % 0.0 mm
05:42 15.6 °C 10.2 °C 1020.9 hPa West 2.3 km/h 2.3 km/h 70 % 0.0 mm
05:47 15.5 °C 10.1 °C 1021.9 hPa WNW 3.7 km/h 3.7 km/h 70 % 0.0 mm
05:52 15.3 °C 9.8 °C 1021.9 hPa NNE 3.7 km/h 3.7 km/h 70 % 0.0 mm
05:57 15.3 °C 9.8 °C 1021.9 hPa North 1.9 km/h 1.9 km/h 70 % 0.0 mm
06:02 15.2 °C 9.8 °C 1021.9 hPa NE 3.5 km/h 3.5 km/h 70 % 0.0 mm
06:07 15.1 °C 9.7 °C 1021.9 hPa NNE 7.4 km/h 7.4 km/h 70 % 0.0 mm
06:12 15.1 °C 9.4 °C 1021.9 hPa NNE 3.2 km/h   69 % 0.0 mm
06:17 15.1 °C 9.4 °C 1021.9 hPa NE 4.7 km/h 4.7 km/h 69 % 0.0 mm
06:22 15.0 °C 9.3 °C 1021.9 hPa NE 5.6 km/h 5.6 km/h 69 % 0.0 mm
06:27 15.0 °C 9.3 °C 1021.9 hPa NNE 6.1 km/h 6.1 km/h 69 % 0.0 mm
06:32 15.0 °C 9.3 °C 1021.9 hPa NNE 3.7 km/h 3.7 km/h 69 % 0.0 mm
06:37 15.0 °C 9.3 °C 1021.9 hPa ENE 5.6 km/h 5.6 km/h 69 % 0.0 mm
06:42 15.0 °C 9.1 °C 1021.9 hPa NE 9.3 km/h 9.3 km/h 68 % 0.0 mm
06:47 15.0 °C 9.1 °C 1021.9 hPa NNW 5.8 km/h 5.8 km/h 68 % 0.0 mm
06:52 15.0 °C 9.1 °C 1021.9 hPa ENE 5.8 km/h 5.8 km/h 68 % 0.0 mm
06:57 15.0 °C 9.1 °C 1021.9 hPa East 5.6 km/h 5.6 km/h 68 % 0.0 mm
07:02 15.0 °C 9.1 °C 1022.9 hPa NE 3.7 km/h 3.7 km/h 68 % 0.0 mm
07:12 14.9 °C 8.8 °C 1022.9 hPa NE 5.6 km/h 5.6 km/h 67 % 0.0 mm
07:17 14.9 °C 8.8 °C 1022.9 hPa NNW 7.4 km/h 7.4 km/h 67 % 0.0 mm
07:22 14.9 °C 8.8 °C 1022.9 hPa NE 5.6 km/h 5.6 km/h 67 % 0.0 mm
07:32 14.8 °C 8.7 °C 1022.9 hPa WNW 3.7 km/h 3.7 km/h 67 % 0.0 mm
07:37 14.8 °C 8.7 °C 1022.9 hPa WNW 3.7 km/h 3.7 km/h 67 % 0.0 mm
07:42 14.7 °C 8.4 °C 1022.9 hPa North 1.9 km/h   66 % 0.0 mm
07:47 14.7 °C 8.6 °C 1022.9 hPa NNE 1.9 km/h   67 % 0.0 mm
07:52 14.8 °C 8.5 °C 1022.9 hPa ENE 3.7 km/h 3.7 km/h 66 % 0.0 mm
07:57 14.8 °C 8.5 °C 1022.9 hPa NE 3.7 km/h 3.7 km/h 66 % 0.0 mm
08:02 14.8 °C 8.5 °C 1022.9 hPa NNE 3.7 km/h 3.7 km/h 66 % 0.0 mm
08:07 14.8 °C 8.5 °C 1022.9 hPa NW 1.9 km/h 1.9 km/h 66 % 0.0 mm
08:12 14.8 °C 8.5 °C 1022.9 hPa NNE 4.2 km/h 4.2 km/h 66 % 0.0 mm
08:17 15.0 °C 8.7 °C 1023.9 hPa NE 5.0 km/h 5.0 km/h 66 % 0.0 mm
08:22 14.9 °C 8.6 °C 1023.9 hPa NNE 7.4 km/h 7.4 km/h 66 % 0.0 mm
08:27 14.9 °C 8.6 °C 1023.9 hPa ENE 1.9 km/h 1.9 km/h 66 % 0.0 mm
08:32 14.8 °C 8.5 °C 1023.9 hPa ENE 6.9 km/h 6.9 km/h 66 % 0.0 mm
08:37 14.8 °C 8.5 °C 1023.9 hPa NNE 5.6 km/h 5.6 km/h 66 % 0.0 mm
08:42 14.8 °C 8.5 °C 1023.9 hPa NE 7.4 km/h 7.4 km/h 66 % 0.0 mm
08:47 14.8 °C 8.5 °C 1023.9 hPa ENE 9.3 km/h 9.3 km/h 66 % 0.0 mm
08:52 15.0 °C 8.7 °C 1023.9 hPa NNW 9.3 km/h 9.3 km/h 66 % 0.0 mm
08:57 15.0 °C 8.4 °C 1023.9 hPa ENE 7.4 km/h 7.4 km/h 65 % 0.0 mm
09:02 15.1 °C 8.6 °C 1023.9 hPa NE 7.4 km/h 7.4 km/h 65 % 0.0 mm
09:07 15.3 °C 8.8 °C 1023.9 hPa NE 3.9 km/h 3.9 km/h 65 % 0.0 mm
09:08 15.3 °C 8.8 °C 1023.9 hPa East 3.9 km/h 3.9 km/h 65 % 0.0 mm
09:13 15.3 °C 8.8 °C 1023.9 hPa NNE 5.6 km/h 5.6 km/h 65 % 0.0 mm
09:18 15.3 °C 8.8 °C 1023.9 hPa NE 5.6 km/h 5.6 km/h 65 % 0.0 mm
09:23 15.2 °C 8.7 °C 1023.9 hPa North 7.4 km/h 7.4 km/h 65 % 0.0 mm
09:28 15.2 °C 8.4 °C 1023.9 hPa NNE 9.3 km/h 9.3 km/h 64 % 0.0 mm
09:33 15.2 °C 8.4 °C 1023.9 hPa NNE 3.7 km/h 4.7 km/h 64 % 0.0 mm
09:38 15.1 °C 8.3 °C 1023.9 hPa NNW 11.1 km/h 11.1 km/h 64 % 0.0 mm
09:43 15.1 °C 8.3 °C 1023.9 hPa NNE 9.3 km/h 9.3 km/h 64 % 0.0 mm
09:48 15.1 °C 8.3 °C 1023.9 hPa ENE 13.0 km/h 13.0 km/h 64 % 0.0 mm
09:53 15.2 °C 8.4 °C 1023.9 hPa NE 9.5 km/h 9.5 km/h 64 % 0.0 mm
09:58 15.2 °C 8.4 °C 1023.9 hPa NNE 9.3 km/h 9.3 km/h 64 % 0.0 mm
10:03 15.2 °C 8.2 °C 1023.9 hPa ENE 4.7 km/h 4.7 km/h 63 % 0.0 mm
10:08 15.4 °C 8.6 °C 1023.9 hPa NE 13.0 km/h 13.0 km/h 64 % 0.0 mm
10:13 15.5 °C 8.5 °C 1023.9 hPa ESE 7.4 km/h 7.4 km/h 63 % 0.0 mm
10:18 15.6 °C 8.6 °C 1023.9 hPa NNE 9.3 km/h 9.3 km/h 63 % 0.0 mm
10:23 15.6 °C 8.6 °C 1023.9 hPa NNW 5.6 km/h 5.6 km/h 63 % 0.0 mm
10:28 15.9 °C 8.8 °C 1023.9 hPa NNW 5.6 km/h 5.6 km/h 63 % 0.0 mm
10:33 15.8 °C 8.6 °C 1024.9 hPa ENE 7.4 km/h 7.4 km/h 62 % 0.0 mm
10:38 15.9 °C 8.6 °C 1024.9 hPa NNW 7.4 km/h 7.4 km/h 62 % 0.0 mm
10:43 16.1 °C 8.8 °C 1024.9 hPa East 5.6 km/h 5.6 km/h 62 % 0.0 mm
10:48 16.2 °C 8.7 °C 1024.9 hPa NNE 13.0 km/h 13.0 km/h 61 % 0.0 mm
10:53 16.5 °C 8.9 °C 1024.9 hPa NE 5.6 km/h 5.6 km/h 61 % 0.0 mm
10:58 16.5 °C 8.9 °C 1024.9 hPa NNE 9.3 km/h 9.3 km/h 61 % 0.0 mm
11:03 16.7 °C 9.1 °C 1023.9 hPa North 7.4 km/h 7.4 km/h 61 % 0.0 mm
11:08 16.7 °C 9.1 °C 1023.9 hPa NNE 5.6 km/h 5.6 km/h 61 % 0.0 mm
11:13 16.6 °C 8.8 °C 1023.9 hPa NNE 5.6 km/h 5.6 km/h 60 % 0.0 mm
11:23 16.8 °C 9.0 °C 1023.9 hPa NNE 7.4 km/h 7.4 km/h 60 % 0.0 mm
11:28 17.0 °C 8.9 °C 1023.9 hPa NNE 9.3 km/h 9.3 km/h 59 % 0.0 mm
11:38 17.0 °C 8.7 °C 1023.9 hPa NNE 5.8 km/h 5.8 km/h 58 % 0.0 mm
11:43 17.1 °C 8.8 °C 1023.9 hPa NNE 7.4 km/h 7.4 km/h 58 % 0.0 mm
11:48 17.2 °C 8.8 °C 1024.9 hPa NE 7.4 km/h 7.4 km/h 58 % 0.0 mm
11:53 17.7 °C 9.3 °C 1024.9 hPa ENE 7.4 km/h 7.4 km/h 58 % 0.0 mm
11:58 18.2 °C 9.6 °C 1024.9 hPa NE 7.4 km/h 7.4 km/h 57 % 0.0 mm
12:03 18.5 °C 9.6 °C 1024.9 hPa ENE 3.7 km/h 3.7 km/h 56 % 0.0 mm
12:08 18.5 °C 9.6 °C 1024.9 hPa East 3.7 km/h 3.7 km/h 56 % 0.0 mm
12:13 18.6 °C 9.7 °C 1024.9 hPa NNE 7.4 km/h 7.4 km/h 56 % 0.0 mm
12:18 18.6 °C 9.4 °C 1024.9 hPa ESE 11.1 km/h 11.1 km/h 55 % 0.0 mm
12:23 19.1 °C 9.6 °C 1024.9 hPa South 13.0 km/h 13.0 km/h 54 % 0.0 mm
12:33 19.6 °C 10.1 °C 1024.9 hPa WSW 3.7 km/h 3.7 km/h 54 % 0.0 mm
12:34 19.6 °C 10.1 °C 1024.9 hPa WSW 3.9 km/h 3.9 km/h 54 % 0.0 mm
12:39 19.5 °C 9.9 °C 1024.9 hPa ENE 3.7 km/h 3.7 km/h 54 % 0.0 mm
12:44 20.1 °C 10.2 °C 1023.9 hPa East 5.8 km/h 5.8 km/h 53 % 0.0 mm
12:49 20.1 °C 10.2 °C 1023.9 hPa NNW 7.4 km/h 7.4 km/h 53 % 0.0 mm
12:54 19.9 °C 9.7 °C 1023.9 hPa WSW 7.4 km/h 7.4 km/h 52 % 0.0 mm
12:59 20.0 °C 9.8 °C 1023.9 hPa North 7.4 km/h 7.4 km/h 52 % 0.0 mm
13:04 20.2 °C 10.0 °C 1023.9 hPa ENE 7.4 km/h 7.4 km/h 52 % 0.0 mm
13:09 20.1 °C 9.9 °C 1023.9 hPa ESE 5.6 km/h 5.6 km/h 52 % 0.0 mm
13:14 20.2 °C 10.0 °C 1023.9 hPa ESE 6.9 km/h 6.9 km/h 52 % 0.0 mm
13:19 20.4 °C 10.2 °C 1023.9 hPa ESE 11.1 km/h 11.1 km/h 52 % 0.0 mm
13:24 21.1 °C 10.6 °C 1023.9 hPa ESE 5.6 km/h 5.6 km/h 51 % 0.0 mm
13:34 21.2 °C 10.3 °C 1023.9 hPa SE 9.3 km/h 9.3 km/h 50 % 0.0 mm
13:39 21.6 °C 11.0 °C 1023.9 hPa WSW 4.2 km/h 5.0 km/h 51 % 0.0 mm
13:44 21.3 °C 10.4 °C 1023.9 hPa ESE 14.8 km/h 14.8 km/h 50 % 0.0 mm
13:49 21.4 °C 10.6 °C 1023.9 hPa South 11.1 km/h 11.1 km/h 50 % 0.0 mm
13:54 21.4 °C 10.6 °C 1023.9 hPa NNE 7.4 km/h 7.4 km/h 50 % 0.0 mm
13:59 21.1 °C 10.3 °C 1023.9 hPa East 7.4 km/h 7.4 km/h 50 % 0.0 mm
14:04 21.5 °C 10.6 °C 1023.9 hPa East 5.6 km/h 5.6 km/h 50 % 0.0 mm
14:09 21.9 °C 11.0 °C 1023.9 hPa SSW 6.4 km/h 6.4 km/h 50 % 0.0 mm
14:14 22.3 °C 11.4 °C 1023.9 hPa South 9.3 km/h 9.3 km/h 50 % 0.0 mm
14:19 22.9 °C 11.6 °C 1023.9 hPa SSE 4.7 km/h 4.7 km/h 49 % 0.0 mm
14:24 22.2 °C 11.0 °C 1023.9 hPa NE 5.6 km/h 5.6 km/h 49 % 0.0 mm
14:29 22.7 °C 11.4 °C 1023.9 hPa East 7.9 km/h 7.9 km/h 49 % 0.0 mm
14:34 22.5 °C 11.2 °C 1023.9 hPa South 5.6 km/h 5.6 km/h 49 % 0.0 mm
14:39 22.9 °C 11.3 °C 1023.9 hPa ENE 14.8 km/h 14.8 km/h 48 % 0.0 mm
14:44 22.5 °C 10.9 °C 1022.9 hPa SE 7.4 km/h 7.4 km/h 48 % 0.0 mm
14:49 23.2 °C 11.6 °C 1022.9 hPa South 14.8 km/h 14.8 km/h 48 % 0.0 mm
14:54 23.0 °C 11.1 °C 1022.9 hPa SW 5.6 km/h 5.6 km/h 47 % 0.0 mm
14:59 23.4 °C 11.8 °C 1022.9 hPa WSW 7.4 km/h 7.4 km/h 48 % 0.0 mm
15:04 23.3 °C 11.7 °C 1022.9 hPa NW 11.1 km/h 11.1 km/h 48 % 0.0 mm
15:09 23.0 °C 11.4 °C 1022.9 hPa WSW 5.6 km/h 5.6 km/h 48 % 0.0 mm
15:14 23.5 °C 11.8 °C 1022.9 hPa SW 11.1 km/h 11.1 km/h 48 % 0.0 mm
15:19 23.7 °C 12.1 °C 1022.9 hPa South 5.0 km/h 5.0 km/h 48 % 0.0 mm
15:24 23.5 °C 11.8 °C 1022.9 hPa SW 11.1 km/h 11.1 km/h 48 % 0.0 mm
15:29 23.5 °C 11.8 °C 1022.9 hPa SW 11.9 km/h 11.9 km/h 48 % 0.0 mm
15:34 23.4 °C 11.4 °C 1022.9 hPa West 7.4 km/h 7.4 km/h 47 % 0.0 mm
15:39 23.5 °C 11.6 °C 1022.9 hPa South 3.7 km/h 3.9 km/h 47 % 0.0 mm
15:49 24.3 °C 12.3 °C 1022.9 hPa SSW 9.3 km/h 9.3 km/h 47 % 0.0 mm
15:54 24.4 °C 12.3 °C 1022.9 hPa SW 5.8 km/h 5.8 km/h 47 % 0.0 mm
15:59 24.6 °C 12.6 °C 1021.9 hPa WSW 7.4 km/h 7.4 km/h 47 % 0.0 mm
16:04 24.1 °C 11.8 °C 1021.9 hPa SW 5.6 km/h 5.6 km/h 46 % 0.0 mm
16:09 23.2 °C 10.9 °C 1021.9 hPa East 5.6 km/h 5.6 km/h 46 % 0.0 mm
16:14 23.2 °C 10.9 °C 1022.9 hPa ENE 7.4 km/h 7.4 km/h 46 % 0.0 mm
16:19 23.6 °C 11.6 °C 1022.9 hPa WSW 7.4 km/h 7.4 km/h 47 % 0.0 mm
16:20 23.6 °C 11.6 °C 1022.9 hPa SSW 7.4 km/h 7.4 km/h 47 % 0.0 mm
16:25 22.9 °C 10.7 °C 1022.9 hPa SE 13.0 km/h 13.0 km/h 46 % 0.0 mm
16:30 22.8 °C 10.6 °C 1021.9 hPa NE 13.7 km/h 13.7 km/h 46 % 0.0 mm
16:35 22.9 °C 10.3 °C 1021.9 hPa South 11.1 km/h 11.1 km/h 45 % 0.0 mm
16:40 23.0 °C 10.1 °C 1021.9 hPa SSE 9.3 km/h 9.3 km/h 44 % 0.0 mm
16:45 23.2 °C 10.6 °C 1021.9 hPa South 9.5 km/h 9.5 km/h 45 % 0.0 mm
16:50 23.1 °C 10.2 °C 1021.9 hPa ENE 16.7 km/h 16.7 km/h 44 % 0.0 mm
16:55 23.7 °C 11.4 °C 1021.9 hPa WSW 9.3 km/h 9.3 km/h 46 % 0.0 mm
17:00 24.0 °C 11.7 °C 1022.9 hPa WSW 8.7 km/h 8.7 km/h 46 % 0.0 mm
17:05 23.9 °C 11.6 °C 1022.9 hPa South 11.1 km/h 11.1 km/h 46 % 0.0 mm
17:10 23.5 °C 11.2 °C 1022.9 hPa SW 16.7 km/h 16.7 km/h 46 % 0.0 mm
17:15 23.3 °C 11.0 °C 1022.9 hPa SW 16.7 km/h 16.7 km/h 46 % 0.0 mm
17:20 23.2 °C 10.9 °C 1022.9 hPa SSE 5.6 km/h 5.6 km/h 46 % 0.0 mm
17:25 23.3 °C 11.0 °C 1022.9 hPa SW 13.0 km/h 13.0 km/h 46 % 0.0 mm
17:30 23.4 °C 11.1 °C 1022.9 hPa SW 5.8 km/h 5.8 km/h 46 % 0.0 mm
17:35 23.2 °C 10.9 °C 1022.9 hPa SW 11.1 km/h 11.1 km/h 46 % 0.0 mm
17:40 22.8 °C 10.6 °C 1022.9 hPa South 13.0 km/h 13.0 km/h 46 % 0.0 mm
17:45 22.8 °C 10.9 °C 1021.9 hPa SW 5.6 km/h 5.6 km/h 47 % 0.0 mm
17:50 22.3 °C 10.4 °C 1021.9 hPa SW 7.4 km/h 7.4 km/h 47 % 0.0 mm
17:55 21.9 °C 10.1 °C 1021.9 hPa WSW 7.4 km/h 7.4 km/h 47 % 0.0 mm
18:00 21.5 °C 9.7 °C 1022.9 hPa South 14.8 km/h 14.8 km/h 47 % 0.0 mm
18:05 21.1 °C 9.3 °C 1022.9 hPa SW 9.3 km/h 9.3 km/h 47 % 0.0 mm
18:10 21.0 °C 9.3 °C 1022.9 hPa South 9.3 km/h 9.3 km/h 47 % 0.0 mm
18:15 21.0 °C 9.6 °C 1022.9 hPa SSW 4.2 km/h 4.2 km/h 48 % 0.0 mm
18:20 20.8 °C 9.7 °C 1022.9 hPa SW 9.0 km/h 9.0 km/h 49 % 0.0 mm
18:25 20.8 °C 9.7 °C 1022.9 hPa West 7.4 km/h 7.4 km/h 49 % 0.0 mm
18:30 20.9 °C 9.8 °C 1022.9 hPa SSW 9.3 km/h 9.3 km/h 49 % 0.0 mm
18:31 20.9 °C 9.8 °C 1022.9 hPa WSW 11.1 km/h 11.1 km/h 49 % 0.0 mm
18:36 20.6 °C 9.5 °C 1022.9 hPa SSW 7.4 km/h 7.4 km/h 49 % 0.0 mm
18:41 20.4 °C 9.6 °C 1022.9 hPa SW 13.0 km/h 13.0 km/h 50 % 0.0 mm
18:46 20.4 °C 9.6 °C 1022.9 hPa WSW 13.0 km/h 13.0 km/h 50 % 0.0 mm
18:51 20.2 °C 9.4 °C 1022.9 hPa SW 5.6 km/h 5.6 km/h 50 % 0.0 mm
18:56 20.1 °C 9.3 °C 1022.9 hPa South 13.0 km/h 13.0 km/h 50 % 0.0 mm
19:01 20.0 °C 9.6 °C 1022.9 hPa SW 5.6 km/h 5.6 km/h 51 % 0.0 mm
19:06 19.8 °C 9.4 °C 1022.9 hPa SSW 9.0 km/h 9.0 km/h 51 % 0.0 mm
19:11 19.6 °C 9.2 °C 1022.9 hPa SW 6.9 km/h 6.9 km/h 51 % 0.0 mm
19:16 19.4 °C 9.0 °C 1022.9 hPa SW 5.6 km/h 5.6 km/h 51 % 0.0 mm
19:21 19.3 °C 9.2 °C 1022.9 hPa SW 6.4 km/h 6.4 km/h 52 % 0.0 mm
19:22 19.3 °C 9.2 °C 1022.9 hPa WSW 7.4 km/h 7.4 km/h 52 % 0.0 mm
19:27 19.0 °C 8.9 °C 1022.9 hPa SW 7.4 km/h 7.4 km/h 52 % 0.0 mm
19:32 18.8 °C 9.0 °C 1022.9 hPa SW 9.0 km/h 9.0 km/h 53 % 0.0 mm
19:42 18.5 °C 9.0 °C 1022.9 hPa SW 7.4 km/h 7.4 km/h 54 % 0.0 mm
19:47 18.4 °C 8.9 °C 1022.9 hPa SW 3.7 km/h 3.7 km/h 54 % 0.0 mm
19:52 18.3 °C 8.8 °C 1022.9 hPa SW 3.9 km/h 3.9 km/h 54 % 0.0 mm
19:57 18.1 °C 8.9 °C 1022.9 hPa SW 3.7 km/h 3.7 km/h 55 % 0.0 mm
20:02 17.9 °C 8.7 °C 1022.9 hPa SW 3.9 km/h 3.9 km/h 55 % 0.0 mm
20:07 17.8 °C 8.6 °C 1022.9 hPa WSW 7.4 km/h 7.4 km/h 55 % 0.0 mm
20:12 17.7 °C 8.8 °C 1022.9 hPa West 4.2 km/h 4.2 km/h 56 % 0.0 mm
20:17 17.7 °C 8.8 °C 1023.9 hPa SSW 3.9 km/h 3.9 km/h 56 % 0.0 mm
20:22 17.6 °C 8.7 °C 1023.9 hPa WSW 3.7 km/h 3.7 km/h 56 % 0.0 mm
20:27 17.5 °C 8.9 °C 1023.9 hPa WSW 7.4 km/h 7.4 km/h 57 % 0.0 mm
20:37 17.4 °C 9.1 °C 1022.9 hPa Calm     58 % 0.0 mm
20:42 17.3 °C 8.9 °C 1022.9 hPa SW 3.7 km/h 3.7 km/h 58 % 0.0 mm
20:47 17.2 °C 8.8 °C 1023.9 hPa WSW 3.7 km/h 3.7 km/h 58 % 0.0 mm
20:52 17.2 °C 8.8 °C 1023.9 hPa SW 3.7 km/h 3.7 km/h 58 % 0.0 mm
20:57 17.1 °C 9.0 °C 1023.9 hPa SW 3.7 km/h 3.7 km/h 59 % 0.0 mm
21:02 17.1 °C 9.0 °C 1023.9 hPa SW 3.2 km/h 3.2 km/h 59 % 0.0 mm
21:07 17.0 °C 8.9 °C 1023.9 hPa SW 2.6 km/h 2.6 km/h 59 % 0.0 mm
21:12 17.0 °C 8.9 °C 1023.9 hPa SW 3.7 km/h 3.7 km/h 59 % 0.0 mm
21:17 16.9 °C 9.3 °C 1022.9 hPa Calm     61 % 0.0 mm
21:22 16.8 °C 9.2 °C 1022.9 hPa WSW 1.9 km/h 1.9 km/h 61 % 0.0 mm
21:27 16.8 °C 9.2 °C 1022.9 hPa Calm     61 % 0.0 mm
21:32 16.7 °C 9.1 °C 1023.9 hPa Calm     61 % 0.0 mm
21:37 16.6 °C 9.3 °C 1023.9 hPa Calm     62 % 0.0 mm
21:42 16.5 °C 9.2 °C 1023.9 hPa Calm     62 % 0.0 mm
21:47 16.4 °C 9.1 °C 1022.9 hPa Calm     62 % 0.0 mm
21:52 16.4 °C 9.1 °C 1022.9 hPa Calm     62 % 0.0 mm
21:57 16.3 °C 9.2 °C 1022.9 hPa Calm     63 % 0.0 mm
22:02 16.3 °C 9.2 °C 1022.9 hPa Calm     63 % 0.0 mm
22:07 16.3 °C 9.2 °C 1022.9 hPa West 3.7 km/h 3.7 km/h 63 % 0.0 mm
22:12 16.4 °C 9.3 °C 1022.9 hPa West 2.3 km/h 2.3 km/h 63 % 0.0 mm
22:17 16.3 °C 9.5 °C 1022.9 hPa Calm     64 % 0.0 mm
22:22 16.3 °C 9.5 °C 1022.9 hPa Calm     64 % 0.0 mm
22:32 16.1 °C 9.3 °C 1023.9 hPa West 1.9 km/h   64 % 0.0 mm
22:37 16.0 °C 9.2 °C 1023.9 hPa Calm     64 % 0.0 mm
22:42 15.8 °C 9.0 °C 1023.9 hPa West 2.3 km/h   64 % 0.0 mm
22:47 15.7 °C 9.1 °C 1022.9 hPa Calm     65 % 0.0 mm
22:52 15.6 °C 9.1 °C 1022.9 hPa Calm     65 % 0.0 mm
22:57 15.5 °C 8.9 °C 1022.9 hPa Calm     65 % 0.0 mm
23:02 15.4 °C 9.1 °C 1022.9 hPa Calm     66 % 0.0 mm
23:07 15.3 °C 9.0 °C 1022.9 hPa Calm     66 % 0.0 mm
23:12 15.3 °C 9.0 °C 1022.9 hPa Calm     66 % 0.0 mm
23:17 15.2 °C 8.9 °C 1022.9 hPa Calm     66 % 0.0 mm
23:22 15.1 °C 9.0 °C 1022.9 hPa Calm     67 % 0.0 mm
23:27 15.0 °C 8.9 °C 1022.9 hPa Calm     67 % 0.0 mm
23:32 15.0 °C 9.1 °C 1022.9 hPa Calm     68 % 0.0 mm
23:37 15.0 °C 9.1 °C 1022.9 hPa Calm     68 % 0.0 mm
23:42 14.9 °C 9.1 °C 1022.9 hPa Calm     68 % 0.0 mm
23:47 14.9 °C 9.1 °C 1022.9 hPa West 1.4 km/h   68 % 0.0 mm
23:52 14.9 °C 9.1 °C 1022.9 hPa Calm     68 % 0.0 mm
23:57 14.8 °C 9.2 °C 1022.9 hPa Calm     69 % 0.0 mm
Meteo Sesrovires
Elogis d' Weather Underground - 4 mb

Guio original per  Jim McMurry - jmcmurry@mwt.net Adaptat per a la plantilla per  Wim van der Kuil - Leuven-Template.eu

Trobareu la nostra informacio del temps tambe a:

Weather Underground

AWEKAS